createdAt,value
2019-03-20T00:01:08.014Z,7.93
2019-03-20T00:06:09.787Z,7.60
2019-03-20T00:11:12.244Z,8.23
2019-03-20T00:16:14.694Z,10.27
2019-03-20T00:21:17.148Z,9.80
2019-03-20T00:26:19.616Z,9.50
2019-03-20T00:31:22.074Z,8.97
2019-03-20T00:36:24.542Z,7.90
2019-03-20T00:41:27.000Z,7.87
2019-03-20T00:46:29.471Z,7.20
2019-03-20T00:51:31.920Z,6.40
2019-03-20T00:56:34.396Z,6.63
2019-03-20T01:01:36.849Z,6.47
2019-03-20T01:06:39.303Z,5.80
2019-03-20T01:11:41.777Z,5.40
2019-03-20T01:16:44.225Z,5.20
2019-03-20T01:21:46.790Z,5.03
2019-03-20T01:26:49.270Z,4.53
2019-03-20T01:31:51.798Z,4.80
2019-03-20T01:36:54.260Z,5.73
2019-03-20T01:41:56.728Z,5.40
2019-03-20T01:46:59.207Z,5.43
2019-03-20T01:52:01.654Z,5.10
2019-03-20T01:57:04.099Z,4.90
2019-03-20T02:02:06.560Z,6.13
2019-03-20T02:07:09.019Z,7.70
2019-03-20T02:12:11.463Z,7.10
2019-03-20T02:17:13.936Z,5.87
2019-03-20T02:22:16.403Z,5.13
2019-03-20T02:27:18.864Z,5.23
2019-03-20T02:32:21.318Z,5.63
2019-03-20T02:37:23.774Z,5.83
2019-03-20T02:42:26.268Z,6.70
2019-03-20T02:47:28.719Z,6.10
2019-03-20T02:52:31.184Z,6.50
2019-03-20T02:57:33.649Z,5.40
2019-03-20T03:02:36.113Z,6.10
2019-03-20T03:07:38.623Z,5.90
2019-03-20T03:12:41.090Z,5.83
2019-03-20T03:17:43.545Z,5.03
2019-03-20T03:22:46.007Z,5.33
2019-03-20T03:27:48.462Z,7.63
2019-03-20T03:32:50.928Z,7.17
2019-03-20T03:37:53.389Z,6.70
2019-03-20T03:42:55.847Z,6.27
2019-03-20T03:47:58.337Z,6.37
2019-03-20T03:53:00.780Z,6.30
2019-03-20T03:58:03.243Z,6.30
2019-03-20T04:03:05.743Z,6.30
2019-03-20T04:08:08.206Z,6.17
2019-03-20T04:13:10.669Z,6.43
2019-03-20T04:18:13.124Z,6.47
2019-03-20T04:23:15.584Z,6.00
2019-03-20T04:28:18.032Z,6.87
2019-03-20T04:33:20.487Z,5.90
2019-03-20T04:38:22.924Z,6.00
2019-03-20T04:43:25.394Z,5.50
2019-03-20T04:48:27.845Z,5.53
2019-03-20T04:53:30.305Z,5.77
2019-03-20T04:58:32.793Z,6.30
2019-03-20T05:03:35.255Z,5.40
2019-03-20T05:08:37.711Z,5.97
2019-03-20T05:13:40.173Z,5.67
2019-03-20T05:18:42.632Z,6.60
2019-03-20T05:23:45.089Z,5.77
2019-03-20T05:28:47.553Z,5.90
2019-03-20T05:33:50.018Z,6.83
2019-03-20T05:38:52.486Z,5.67
2019-03-20T05:43:54.937Z,6.17
2019-03-20T05:48:57.398Z,6.30
2019-03-20T05:53:59.862Z,6.40
2019-03-20T05:59:02.327Z,5.63
2019-03-20T06:04:04.793Z,6.10
2019-03-20T06:09:07.244Z,6.07
2019-03-20T06:14:09.720Z,5.80
2019-03-20T06:19:12.342Z,5.90
2019-03-20T06:24:14.809Z,5.77
2019-03-20T06:29:17.272Z,6.07
2019-03-20T06:34:19.731Z,5.63
2019-03-20T06:39:22.217Z,6.67
2019-03-20T06:44:24.669Z,7.27
2019-03-20T06:49:27.125Z,7.17
2019-03-20T06:54:29.807Z,8.33
2019-03-20T06:59:35.549Z,6.80
2019-03-20T07:04:55.997Z,9.50
2019-03-20T07:10:10.333Z,6.50
2019-03-20T07:15:12.790Z,6.00
2019-03-20T07:20:16.983Z,5.10
2019-03-20T07:25:17.705Z,5.10
2019-03-20T07:30:20.161Z,5.27
2019-03-20T07:35:22.713Z,4.97
2019-03-20T07:40:25.178Z,5.27
2019-03-20T07:45:27.694Z,5.50
2019-03-20T07:50:30.172Z,5.83
2019-03-20T07:55:32.637Z,5.43
2019-03-20T08:00:35.090Z,5.33
2019-03-20T08:05:37.559Z,4.70
2019-03-20T08:10:40.190Z,4.57
2019-03-20T08:15:42.697Z,4.13
2019-03-20T08:20:45.194Z,3.97
2019-03-20T08:25:47.697Z,4.20
2019-03-20T08:30:50.114Z,3.37
2019-03-20T08:35:52.568Z,3.20
2019-03-20T08:40:55.030Z,3.30
2019-03-20T08:45:57.486Z,3.47
2019-03-20T08:50:59.981Z,3.05
2019-03-20T08:56:02.426Z,4.32
2019-03-20T09:01:04.882Z,3.12
2019-03-20T09:06:09.123Z,4.37
2019-03-20T09:11:11.593Z,3.77
2019-03-20T09:16:14.058Z,3.67
2019-03-20T09:21:16.512Z,3.65
2019-03-20T09:26:18.975Z,4.03
2019-03-20T09:31:21.425Z,3.20
2019-03-20T09:36:23.880Z,3.40
2019-03-20T09:41:26.326Z,3.37
2019-03-20T09:46:28.772Z,3.80
2019-03-20T09:51:31.225Z,3.37
2019-03-20T09:56:33.678Z,3.40
2019-03-20T10:01:36.143Z,3.17
2019-03-20T10:06:38.608Z,3.07
2019-03-20T10:11:41.141Z,3.10
2019-03-20T10:16:43.595Z,2.97
2019-03-20T10:21:46.043Z,3.28
2019-03-20T10:26:48.500Z,2.55
2019-03-20T10:31:50.967Z,2.92
2019-03-20T10:36:53.429Z,2.45
2019-03-20T10:41:55.881Z,3.28
2019-03-20T10:46:58.333Z,2.75
2019-03-20T10:52:00.805Z,2.83
2019-03-20T10:57:03.265Z,3.20
2019-03-20T11:02:05.743Z,3.00
2019-03-20T11:07:08.195Z,3.35
2019-03-20T11:12:10.652Z,2.90
2019-03-20T11:17:13.119Z,2.75
2019-03-20T11:22:19.117Z,3.22
2019-03-20T11:27:18.061Z,3.07
2019-03-20T11:32:20.512Z,3.00
2019-03-20T11:37:22.964Z,3.10
2019-03-20T11:42:25.422Z,3.00
2019-03-20T11:47:28.340Z,2.67
2019-03-20T11:52:30.856Z,2.77
2019-03-20T11:57:33.319Z,2.70
2019-03-20T12:02:35.780Z,2.80
2019-03-20T12:07:38.235Z,3.77
2019-03-20T12:12:40.680Z,3.10
2019-03-20T12:17:43.135Z,3.20
2019-03-20T12:22:45.618Z,2.43
2019-03-20T12:27:48.077Z,2.60
2019-03-20T12:32:50.614Z,3.40
2019-03-20T12:37:53.065Z,3.57
2019-03-20T12:42:55.527Z,3.10
2019-03-20T12:47:57.998Z,4.00
2019-03-20T12:53:01.934Z,2.60
2019-03-20T12:58:04.217Z,2.83
2019-03-20T13:03:05.400Z,2.97
2019-03-20T13:08:07.850Z,2.70
2019-03-20T13:13:10.486Z,2.97
2019-03-20T13:18:12.931Z,3.33
2019-03-20T13:23:21.184Z,2.87
2019-03-20T13:28:23.659Z,4.80
2019-03-20T13:33:26.406Z,2.47
2019-03-20T13:38:28.637Z,3.10
2019-03-20T13:43:31.114Z,2.90
2019-03-20T13:48:33.568Z,2.97
2019-03-20T13:53:36.020Z,2.60
2019-03-20T13:58:38.489Z,2.67
2019-03-20T14:03:40.951Z,2.57
2019-03-20T14:08:43.425Z,3.27
2019-03-20T14:13:45.906Z,2.50
2019-03-20T14:18:48.366Z,2.77
2019-03-20T14:23:50.838Z,2.70
2019-03-20T14:28:53.293Z,2.70
2019-03-20T14:33:55.755Z,2.87
2019-03-20T14:38:58.219Z,3.13
2019-03-20T14:44:00.682Z,2.80
2019-03-20T14:49:03.168Z,2.80
2019-03-20T14:54:05.634Z,2.70
2019-03-20T14:59:08.103Z,2.53
2019-03-20T15:04:10.582Z,2.80
2019-03-20T15:09:13.042Z,2.87
2019-03-20T15:14:15.508Z,2.90
2019-03-20T15:19:17.965Z,2.70
2019-03-20T15:24:20.452Z,3.10
2019-03-20T15:29:22.920Z,2.63
2019-03-20T15:34:25.370Z,2.47
2019-03-20T15:39:27.831Z,3.07
2019-03-20T15:44:30.298Z,3.47
2019-03-20T15:49:32.773Z,2.80
2019-03-20T15:54:35.226Z,2.63
2019-03-20T15:59:37.686Z,2.77
2019-03-20T16:04:40.136Z,2.47
2019-03-20T16:09:42.599Z,2.60
2019-03-20T16:14:45.060Z,3.70
2019-03-20T16:19:47.543Z,3.30
2019-03-20T16:24:50.034Z,3.30
2019-03-20T16:29:52.506Z,3.97
2019-03-20T16:34:54.976Z,4.27
2019-03-20T16:39:57.439Z,4.03
2019-03-20T16:44:59.916Z,6.03
2019-03-20T16:50:02.392Z,5.20
2019-03-20T16:55:04.867Z,5.23
2019-03-20T17:00:13.099Z,5.53
2019-03-20T17:05:15.570Z,5.40
2019-03-20T17:10:21.012Z,4.70
2019-03-20T17:15:23.475Z,5.20
2019-03-20T17:20:25.947Z,6.93
2019-03-20T17:25:28.424Z,8.10
2019-03-20T17:30:30.890Z,6.70
2019-03-20T17:35:33.375Z,5.30
2019-03-20T17:40:35.824Z,5.33
2019-03-20T17:45:38.287Z,12.40
2019-03-20T17:50:40.833Z,15.13
2019-03-20T17:55:43.405Z,22.97
2019-03-20T18:00:45.866Z,38.87
2019-03-20T18:05:48.372Z,67.63
2019-03-20T18:10:50.848Z,71.93
2019-03-20T18:15:53.323Z,61.23
2019-03-20T18:20:55.808Z,27.23
2019-03-20T18:25:58.273Z,6.43
2019-03-20T18:31:00.759Z,8.97
2019-03-20T18:36:03.237Z,7.50
2019-03-20T18:41:05.702Z,6.13
2019-03-20T18:46:08.202Z,10.23
2019-03-20T18:51:10.658Z,5.70
2019-03-20T18:56:13.155Z,6.07
2019-03-20T19:01:15.628Z,9.20
2019-03-20T19:06:18.143Z,13.17
2019-03-20T19:11:20.600Z,13.70
2019-03-20T19:16:23.192Z,12.23
2019-03-20T19:21:25.658Z,8.53
2019-03-20T19:26:28.117Z,7.13
2019-03-20T19:31:30.601Z,7.13
2019-03-20T19:36:33.089Z,8.33
2019-03-20T19:41:35.543Z,6.80
2019-03-20T19:46:38.008Z,6.77
2019-03-20T19:51:40.474Z,6.60
2019-03-20T19:56:42.955Z,6.17
2019-03-20T20:01:45.446Z,7.83
2019-03-20T20:06:47.931Z,10.63
2019-03-20T20:11:50.486Z,13.43
2019-03-20T20:16:52.966Z,10.63
2019-03-20T20:21:55.468Z,10.07
2019-03-20T20:26:57.950Z,8.73
2019-03-20T20:32:00.428Z,10.17
2019-03-20T20:37:02.909Z,11.50
2019-03-20T20:42:05.414Z,12.00
2019-03-20T20:47:07.911Z,11.63
2019-03-20T20:52:19.028Z,11.57
2019-03-20T20:57:12.854Z,10.47
2019-03-20T21:02:15.324Z,11.13
2019-03-20T21:07:17.804Z,8.77
2019-03-20T21:12:20.268Z,8.03
2019-03-20T21:17:22.780Z,8.30
2019-03-20T21:22:31.279Z,6.63
2019-03-20T21:27:54.926Z,7.13
2019-03-20T21:32:57.372Z,7.27
2019-03-20T21:38:05.312Z,8.60
2019-03-20T21:43:41.762Z,8.27
2019-03-20T21:48:44.183Z,7.70
2019-03-20T21:54:01.654Z,8.47
2019-03-20T21:59:09.836Z,8.50
2019-03-20T22:04:12.295Z,8.03
2019-03-20T22:09:14.765Z,8.73
2019-03-20T22:14:17.220Z,7.87
2019-03-20T22:19:31.386Z,7.87
2019-03-20T22:24:36.569Z,8.10
2019-03-20T22:29:39.065Z,8.27
2019-03-20T22:34:59.933Z,9.20
2019-03-20T22:40:14.739Z,8.97
2019-03-20T22:45:51.119Z,8.80
2019-03-20T22:51:08.587Z,8.47
2019-03-20T22:56:32.736Z,8.77
2019-03-20T23:01:38.002Z,9.23
2019-03-20T23:06:40.472Z,10.97
2019-03-20T23:11:42.949Z,12.63
2019-03-20T23:16:45.389Z,11.20
2019-03-20T23:21:47.870Z,10.07
2019-03-20T23:26:50.328Z,10.60
2019-03-20T23:31:52.827Z,10.00
2019-03-20T23:36:55.303Z,11.37
2019-03-20T23:41:57.782Z,10.53
2019-03-20T23:47:00.251Z,9.90
2019-03-20T23:52:02.743Z,9.00
2019-03-20T23:57:05.201Z,9.57
